Time;durP1;ratioP1;P1;durP2;ratioP2;P2;SDS_P1;SDS_P2;PMS_P1;PMS_P2;Temp;Humidity;BMP_temperature;BMP_pressure;BME280_temperature;BME280_humidity;BME280_pressure;Samples;Min_cycle;Max_cycle;Signal;HPM_P1;HPM_P2
2023/06/18 00:01:22;;;;;;;10.60;5.90;;;;;;;21.12;48.88;98710.23;78150;1294;3067428;-61
2023/06/18 00:03:48;;;;;;;9.20;6.90;;;;;;;21.12;48.80;98711.70;79400;1298;3013482;-61
2023/06/18 00:06:15;;;;;;;9.20;6.50;;;;;;;21.09;48.73;98713.38;79408;1294;3013470;-60
2023/06/18 00:08:44;;;;;;;9.90;6.40;;;;;;;21.05;48.98;98713.05;78233;1295;3027449;-61
2023/06/18 00:11:11;;;;;;;12.40;7.00;;;;;;;21.01;49.08;98712.58;79402;1295;3013391;-60
2023/06/18 00:13:38;;;;;;;8.80;6.40;;;;;;;20.96;49.07;98714.76;79405;1294;3011863;-59
2023/06/18 00:16:05;;;;;;;12.30;6.90;;;;;;;20.97;49.11;98713.48;78148;1294;3068309;-60
2023/06/18 00:18:33;;;;;;;8.40;6.30;;;;;;;20.97;49.30;98713.82;79401;1298;3013022;-61
2023/06/18 00:21:00;;;;;;;9.60;6.60;;;;;;;20.94;49.27;98714.50;79339;1298;3012824;-59
2023/06/18 00:23:28;;;;;;;11.00;7.20;;;;;;;20.93;49.15;98713.48;78183;1295;3052480;-60
2023/06/18 00:25:54;;;;;;;9.40;6.70;;;;;;;20.91;49.39;98711.30;79520;1298;3013391;-59
2023/06/18 00:28:21;;;;;;;8.50;6.70;;;;;;;20.88;49.41;98709.65;79355;1295;3011796;-60
2023/06/18 00:30:49;;;;;;;11.00;6.60;;;;;;;20.85;49.32;98706.83;78052;1301;3028789;-59
2023/06/18 00:33:16;;;;;;;9.80;6.20;;;;;;;20.80;49.36;98711.48;79359;1295;3013070;-60
2023/06/18 00:35:43;;;;;;;8.80;5.90;;;;;;;20.74;49.49;98709.35;79355;1295;3011506;-59
2023/06/18 00:38:11;;;;;;;17.40;6.20;;;;;;;20.69;49.49;98710.77;78161;1298;3053330;-60
2023/06/18 00:40:38;;;;;;;11.20;6.70;;;;;;;20.65;49.54;98715.12;79419;1298;3013644;-59
2023/06/18 00:43:05;;;;;;;11.70;6.20;;;;;;;20.60;49.93;98717.63;79377;1294;3011895;-61
2023/06/18 00:45:34;;;;;;;12.40;7.00;;;;;;;20.57;49.96;98717.75;78126;1294;3068577;-62
2023/06/18 00:48:01;;;;;;;11.40;7.20;;;;;;;20.58;49.82;98718.02;79368;1295;3013538;-61
2023/06/18 00:50:32;;;;;;;15.10;6.70;;;;;;;20.57;49.80;98720.05;79231;1295;3013505;-61
2023/06/18 00:53:00;;;;;;;10.10;6.50;;;;;;;20.57;50.01;98721.19;78146;1298;3052752;-61
2023/06/18 00:55:30;;;;;;;11.40;6.90;;;;;;;20.53;49.90;98723.59;79423;1298;3013893;-61
2023/06/18 00:58:02;;;;;;;11.20;6.50;;;;;;;20.52;49.93;98724.59;78014;1301;3053315;-61
2023/06/18 01:00:32;;;;;;;13.60;7.00;;;;;;;20.44;50.21;98727.06;79417;1295;3013228;-60
2023/06/18 01:03:02;;;;;;;7.50;5.30;;;;;;;20.43;50.08;98727.54;78156;1298;3052268;-62
2023/06/18 01:05:31;;;;;;;11.10;7.10;;;;;;;20.40;50.03;98722.55;79481;1294;3013089;-60
2023/06/18 01:08:00;;;;;;;11.20;7.30;;;;;;;20.35;50.22;98727.42;78106;1298;3028141;-60
2023/06/18 01:10:29;;;;;;;12.40;7.30;;;;;;;20.25;50.66;98725.00;79459;1298;3015308;-60
2023/06/18 01:12:58;;;;;;;10.70;7.00;;;;;;;20.23;50.56;98726.44;78250;1295;3052333;-61
2023/06/18 01:15:26;;;;;;;13.60;7.30;;;;;;;20.22;50.41;98724.61;79211;1298;3014491;-60
2023/06/18 01:17:56;;;;;;;12.70;7.50;;;;;;;20.22;50.45;98722.51;79247;1295;3011843;-59
2023/06/18 01:20:25;;;;;;;11.80;7.10;;;;;;;20.15;50.60;98723.06;78232;1295;3056275;-60
2023/06/18 01:23:01;;;;;;;10.90;7.20;;;;;;;20.04;50.95;98726.08;79352;1295;3013429;-61
2023/06/18 01:25:32;;;;;;;12.60;7.60;;;;;;;19.90;51.85;98729.58;78157;1295;3049961;-59
2023/06/18 01:28:00;;;;;;;11.80;7.40;;;;;;;19.81;52.62;98732.83;79443;1295;3012772;-60
2023/06/18 01:30:28;;;;;;;15.20;7.20;;;;;;;19.78;52.39;98740.35;78237;1298;3025792;-60
2023/06/18 01:32:54;;;;;;;9.20;6.50;;;;;;;19.71;52.34;98738.95;79250;1295;3018999;-60
2023/06/18 01:35:21;;;;;;;13.50;7.40;;;;;;;19.68;52.04;98733.92;79219;1300;3011838;-59
2023/06/18 01:38:16;;;;;;;10.40;6.70;;;;;;;19.73;51.88;98738.56;78183;1298;3026757;-60
2023/06/18 01:41:08;;;;;;;11.70;7.00;;;;;;;19.73;51.87;98736.42;78122;1298;3053739;-60
2023/06/18 01:43:57;;;;;;;9.90;6.30;;;;;;;19.62;52.07;98735.09;78089;1294;3050547;-60
2023/06/18 01:46:25;;;;;;;8.90;6.50;;;;;;;19.61;51.93;98739.48;78197;1298;3052762;-61
2023/06/18 01:48:58;;;;;;;11.20;7.10;;;;;;;19.59;51.94;98740.81;79369;1298;3013630;-59
2023/06/18 01:51:27;;;;;;;11.50;7.50;;;;;;;19.53;52.13;98743.95;78084;1300;3051952;-62
2023/06/18 01:53:55;;;;;;;9.30;6.40;;;;;;;19.49;52.36;98748.95;79495;1294;3013489;-61
2023/06/18 01:56:28;;;;;;;10.40;6.80;;;;;;;19.47;52.37;98745.66;78836;1295;3011474;-60
2023/06/18 01:58:55;;;;;;;11.40;7.30;;;;;;;19.42;52.88;98748.13;79241;1297;3011508;-60
2023/06/18 02:01:26;;;;;;;9.80;7.20;;;;;;;19.37;52.64;98747.77;78087;1301;3050832;-60
2023/06/18 02:03:53;;;;;;;15.20;7.10;;;;;;;19.30;53.05;98749.57;79425;1298;3011749;-62
2023/06/18 02:06:22;;;;;;;11.90;7.10;;;;;;;19.34;52.54;98752.23;78055;1301;3026420;-61
2023/06/18 02:08:48;;;;;;;10.60;7.50;;;;;;;19.33;52.76;98750.56;79422;1298;3013387;-62
2023/06/18 02:11:15;;;;;;;11.20;6.80;;;;;;;19.39;52.73;98753.25;79213;1300;3011582;-59
2023/06/18 02:13:43;;;;;;;12.60;8.10;;;;;;;19.34;52.80;98751.87;78120;1295;3026291;-60
2023/06/18 02:16:10;;;;;;;10.40;6.70;;;;;;;19.29;52.92;98754.32;79402;1295;3012896;-61
2023/06/18 02:18:37;;;;;;;16.20;7.60;;;;;;;19.40;52.56;98754.51;79313;1298;3011530;-59
2023/06/18 02:21:07;;;;;;;10.90;6.80;;;;;;;19.45;52.46;98756.17;78148;1298;3052816;-60
2023/06/18 02:23:34;;;;;;;12.80;7.60;;;;;;;19.43;52.39;98755.84;79388;1295;3013403;-59
2023/06/18 02:26:01;;;;;;;14.50;8.80;;;;;;;19.33;52.90;98757.58;79336;1295;3011927;-60
2023/06/18 02:28:29;;;;;;;13.80;8.30;;;;;;;19.34;52.89;98759.67;78147;1294;3048780;-61
2023/06/18 02:30:56;;;;;;;11.60;7.30;;;;;;;19.30;52.70;98760.58;79378;1295;3021136;-60
2023/06/18 02:33:24;;;;;;;14.10;7.40;;;;;;;19.27;52.64;98763.17;79301;1295;3013240;-61
2023/06/18 02:35:51;;;;;;;13.10;7.70;;;;;;;19.28;52.97;98769.14;78076;1300;3053260;-61
2023/06/18 02:38:18;;;;;;;10.50;6.90;;;;;;;19.37;52.54;98765.41;79404;1295;3018873;-62
2023/06/18 02:40:45;;;;;;;13.60;7.60;;;;;;;19.36;52.76;98768.98;77405;1296;5845454;-61
2023/06/18 02:43:13;;;;;;;12.30;7.10;;;;;;;19.36;52.87;98772.37;78105;1295;3048595;-59
2023/06/18 02:45:40;;;;;;;11.00;7.20;;;;;;;19.40;52.70;98776.32;79409;1294;3013517;-60
2023/06/18 02:48:06;;;;;;;15.90;7.60;;;;;;;19.44;52.68;98772.63;79207;1298;3011454;-60
2023/06/18 02:50:34;;;;;;;12.80;7.40;;;;;;;19.48;52.65;98772.90;78089;1301;3028644;-59
2023/06/18 02:53:01;;;;;;;14.50;8.10;;;;;;;19.53;52.52;98770.41;79248;1301;3013194;-59
2023/06/18 02:55:31;;;;;;;15.40;8.50;;;;;;;19.54;52.55;98768.88;79374;1296;3011881;-60
2023/06/18 02:57:59;;;;;;;14.20;7.70;;;;;;;19.55;52.54;98768.53;78202;1298;3048892;-61
2023/06/18 03:00:26;;;;;;;13.20;7.90;;;;;;;19.61;52.51;98767.56;79331;1295;3021229;-61
2023/06/18 03:02:53;;;;;;;15.40;8.20;;;;;;;19.65;52.54;98770.21;79222;1300;3011635;-61
2023/06/18 03:05:22;;;;;;;11.40;7.40;;;;;;;19.71;52.43;98770.01;78065;1297;3052833;-60
2023/06/18 03:07:51;;;;;;;12.40;7.20;;;;;;;19.75;52.26;98768.14;79474;1295;3013942;-62
2023/06/18 03:10:18;;;;;;;8.40;6.30;;;;;;;19.79;52.30;98763.12;79395;1295;3012024;-62
2023/06/18 03:12:48;;;;;;;11.60;7.80;;;;;;;19.84;52.15;98762.66;78126;1295;3049559;-62
2023/06/18 03:15:24;;;;;;;14.00;8.10;;;;;;;19.88;52.06;98760.04;78831;1295;3013150;-59
2023/06/18 03:17:51;;;;;;;14.40;8.50;;;;;;;19.89;52.04;98762.04;79428;1295;3013724;-62
2023/06/18 03:20:19;;;;;;;12.60;8.30;;;;;;;19.90;52.34;98767.96;79351;1296;3012886;-59
2023/06/18 03:22:50;;;;;;;16.20;9.00;;;;;;;19.93;52.16;98763.66;78033;1301;3053488;-60
2023/06/18 03:25:17;;;;;;;15.60;7.90;;;;;;;19.94;51.92;98762.83;79307;1301;3013111;-59
2023/06/18 03:27:44;;;;;;;13.30;7.20;;;;;;;19.98;51.78;98771.54;79335;1295;3011658;-61
2023/06/18 03:30:12;;;;;;;14.60;7.40;;;;;;;19.99;51.78;98774.05;78122;1298;3050143;-60
2023/06/18 03:32:39;;;;;;;14.80;7.90;;;;;;;20.03;51.83;98776.27;79309;1296;3013046;-60
2023/06/18 03:35:06;;;;;;;20.00;8.40;;;;;;;20.09;51.75;98775.81;79427;1298;3011657;-61
2023/06/18 03:37:35;;;;;;;10.90;7.20;;;;;;;20.16;51.59;98780.06;77880;1300;3051520;-62
2023/06/18 03:40:03;;;;;;;12.30;7.10;;;;;;;20.19;51.54;98782.18;79524;1295;3013620;-61
2023/06/18 03:42:33;;;;;;;11.50;7.10;;;;;;;20.21;51.47;98782.64;78779;1295;3011597;-60
2023/06/18 03:44:59;;;;;;;13.40;6.50;;;;;;;20.23;51.49;98777.27;79261;1300;3013259;-62
2023/06/18 03:47:26;;;;;;;10.10;6.80;;;;;;;20.28;51.32;98779.68;79240;1295;3012227;-61
2023/06/18 03:49:55;;;;;;;8.30;6.40;;;;;;;20.34;51.33;98782.30;78070;1301;3051824;-62
2023/06/18 03:52:21;;;;;;;13.00;6.90;;;;;;;20.35;51.53;98785.23;79241;1301;3013026;-62
2023/06/18 03:54:48;;;;;;;6.90;5.60;;;;;;;20.39;51.15;98782.95;79240;1295;3011623;-59
2023/06/18 03:57:16;;;;;;;9.10;6.20;;;;;;;20.47;50.96;98786.15;77970;1300;3025776;-60
2023/06/18 03:59:42;;;;;;;10.10;6.80;;;;;;;20.54;50.98;98785.14;79393;1295;3020643;-60
2023/06/18 04:02:10;;;;;;;11.40;6.00;;;;;;;20.62;50.73;98787.60;79365;1298;3011935;-61
2023/06/18 04:05:31;;;;;;;12.90;6.30;;;;;;;20.69;50.97;98792.55;79989;1305;3013458;-60
2023/06/18 04:07:57;;;;;;;10.10;6.30;;;;;;;20.69;51.08;98793.64;78913;1302;3013244;-61
2023/06/18 04:10:24;;;;;;;10.80;6.00;;;;;;;20.77;50.86;98795.98;78866;1305;3013666;-61
2023/06/18 04:12:52;;;;;;;10.00;6.30;;;;;;;20.84;50.44;98796.23;77725;1307;3028312;-59
2023/06/18 04:15:19;;;;;;;10.00;6.10;;;;;;;20.86;50.67;98794.08;78968;1305;3013481;-60
2023/06/18 04:17:46;;;;;;;9.60;5.80;;;;;;;20.91;50.38;98790.08;77885;1299;3011475;-61
2023/06/18 04:20:15;;;;;;;11.10;5.80;;;;;;;20.92;50.12;98795.65;78006;1301;3048062;-59
2023/06/18 04:22:42;;;;;;;8.70;5.80;;;;;;;20.99;50.39;98798.77;79233;1301;3012866;-61
2023/06/18 04:25:10;;;;;;;10.50;5.70;;;;;;;21.06;50.17;98798.49;79291;1300;3011611;-61
2023/06/18 04:27:39;;;;;;;9.60;5.90;;;;;;;21.09;50.28;98800.15;78028;1300;3053777;-60
2023/06/18 04:30:07;;;;;;;9.20;5.00;;;;;;;21.17;49.98;98802.83;79269;1300;3013193;-60
2023/06/18 04:32:34;;;;;;;10.40;4.70;;;;;;;21.27;49.62;98801.83;79256;1301;3011779;-60
2023/06/18 04:35:03;;;;;;;7.60;4.70;;;;;;;21.35;49.66;98798.46;78007;1300;3048997;-62
2023/06/18 04:37:31;;;;;;;6.80;4.70;;;;;;;21.43;49.37;98797.09;79404;1295;3013115;-61
2023/06/18 04:40:01;;;;;;;7.30;4.60;;;;;;;21.49;49.63;98803.06;78723;1299;3012684;-59
2023/06/18 04:42:28;;;;;;;7.30;4.30;;;;;;;21.54;49.50;98800.87;79344;1301;3013320;-62
2023/06/18 04:44:54;;;;;;;10.60;5.00;;;;;;;21.60;49.64;98802.16;79279;1300;3011719;-60
2023/06/18 04:47:24;;;;;;;6.80;4.40;;;;;;;21.69;49.53;98803.63;78102;1301;3050730;-61
2023/06/18 04:49:51;;;;;;;6.70;4.20;;;;;;;21.76;49.55;98805.39;79306;1297;3013439;-61
2023/06/18 04:52:18;;;;;;;5.70;4.10;;;;;;;21.80;49.25;98805.98;79227;1301;3013015;-60
2023/06/18 04:54:46;;;;;;;6.80;4.60;;;;;;;21.84;49.26;98803.05;78122;1301;3049594;-60
2023/06/18 04:57:13;;;;;;;7.50;4.70;;;;;;;21.89;49.51;98803.05;79322;1301;3019141;-61
2023/06/18 04:59:40;;;;;;;5.20;4.00;;;;;;;21.97;49.12;98804.95;79201;1300;3011722;-59
2023/06/18 05:02:11;;;;;;;8.10;4.70;;;;;;;22.03;48.89;98806.33;78085;1301;3049590;-61
2023/06/18 05:04:39;;;;;;;7.30;4.90;;;;;;;22.09;48.80;98809.37;79235;1299;3013311;-60
2023/06/18 05:07:05;;;;;;;7.40;4.30;;;;;;;22.15;48.97;98809.78;79313;1300;3012626;-60
2023/06/18 05:09:36;;;;;;;7.70;4.70;;;;;;;22.25;48.98;98815.00;77995;1300;3050229;-60
2023/06/18 05:12:03;;;;;;;9.50;4.70;;;;;;;22.31;49.14;98820.10;79251;1302;3020809;-60
2023/06/18 05:14:30;;;;;;;7.50;5.00;;;;;;;22.41;49.02;98825.36;79273;1301;3011132;-60
2023/06/18 05:16:58;;;;;;;10.90;4.90;;;;;;;22.43;49.03;98826.25;77992;1301;3051104;-59
2023/06/18 05:19:25;;;;;;;6.20;4.60;;;;;;;22.41;49.14;98824.96;79362;1298;3013701;-62
2023/06/18 05:21:51;;;;;;;6.90;4.20;;;;;;;22.47;48.69;98827.50;79212;1299;3012007;-62
2023/06/18 05:24:20;;;;;;;8.20;4.90;;;;;;;22.50;49.09;98829.64;78055;1302;3049902;-60
2023/06/18 05:26:46;;;;;;;6.70;4.50;;;;;;;22.58;48.85;98829.41;79277;1302;3013742;-61
2023/06/18 05:29:16;;;;;;;8.40;4.50;;;;;;;22.61;48.90;98832.17;79305;1302;3011860;-62
2023/06/18 05:31:47;;;;;;;12.00;4.80;;;;;;;22.67;48.99;98831.38;78035;1296;3050953;-61
2023/06/18 05:34:17;;;;;;;6.30;5.10;;;;;;;22.74;49.26;98829.94;79262;1295;3013079;-60
2023/06/18 05:36:45;;;;;;;6.70;4.10;;;;;;;22.81;49.33;98828.66;77984;1301;3048794;-60
2023/06/18 05:39:11;;;;;;;6.50;4.50;;;;;;;22.89;49.26;98835.67;79247;1309;3013329;-62
2023/06/18 05:41:38;;;;;;;8.60;5.10;;;;;;;22.98;49.29;98835.15;79273;1301;3013066;-60
2023/06/18 05:44:07;;;;;;;6.50;4.10;;;;;;;23.06;49.14;98844.77;78011;1302;3053688;-61
2023/06/18 05:46:35;;;;;;;9.80;4.30;;;;;;;23.16;49.16;98842.20;79231;1296;3012921;-61
2023/06/18 05:49:01;;;;;;;8.50;4.70;;;;;;;23.24;48.93;98844.22;79278;1309;3011486;-61
2023/06/18 05:51:30;;;;;;;9.00;4.20;;;;;;;23.34;48.64;98844.44;78060;1298;3049285;-61
2023/06/18 05:53:58;;;;;;;10.20;5.00;;;;;;;23.35;48.64;98845.73;79305;1301;3014027;-63
2023/06/18 05:56:24;;;;;;;6.60;4.60;;;;;;;23.42;48.54;98846.14;79202;1296;3011444;-62
2023/06/18 05:58:53;;;;;;;7.50;4.90;;;;;;;23.48;48.48;98840.60;78115;1298;3055555;-61
2023/06/18 06:01:20;;;;;;;8.10;4.60;;;;;;;23.45;48.78;98838.30;79391;1297;3013365;-61
2023/06/18 06:03:47;;;;;;;9.60;4.50;;;;;;;23.53;48.78;98841.52;79289;1300;3011673;-62
2023/06/18 06:06:15;;;;;;;9.20;4.80;;;;;;;23.64;48.38;98846.40;78082;1301;3049871;-60
2023/06/18 06:08:42;;;;;;;8.10;5.20;;;;;;;23.72;48.08;98847.41;79243;1299;3015024;-61
2023/06/18 06:11:16;;;;;;;7.40;4.60;;;;;;;23.76;48.08;98850.52;78002;1302;3052563;-60
2023/06/18 06:13:42;;;;;;;6.10;4.30;;;;;;;23.86;47.99;98853.15;79248;1311;3013746;-62
2023/06/18 06:16:11;;;;;;;7.90;4.80;;;;;;;23.95;47.86;98854.61;79192;1299;3011974;-62
2023/06/18 06:18:39;;;;;;;7.20;4.40;;;;;;;24.00;47.82;98854.32;77976;1301;3055494;-61
2023/06/18 06:21:06;;;;;;;7.80;4.90;;;;;;;24.08;47.43;98856.27;79230;1302;3013141;-61
2023/06/18 06:23:34;;;;;;;5.90;4.60;;;;;;;24.19;47.09;98854.04;79248;1302;3011169;-62
2023/06/18 06:26:02;;;;;;;7.90;4.50;;;;;;;24.24;47.23;98858.81;78065;1300;3052794;-60
2023/06/18 06:28:30;;;;;;;7.50;5.10;;;;;;;24.26;47.03;98852.26;79330;1301;3012903;-62
2023/06/18 06:30:57;;;;;;;12.00;5.30;;;;;;;24.32;46.53;98853.45;79207;1301;3012301;-61
2023/06/18 06:33:26;;;;;;;8.90;5.30;;;;;;;24.37;46.64;98862.12;78137;1300;3055916;-61
2023/06/18 06:35:53;;;;;;;11.10;5.60;;;;;;;24.48;46.78;98864.11;79283;1302;3012937;-59
2023/06/18 06:38:24;;;;;;;8.10;4.90;;;;;;;24.56;46.84;98860.23;78757;1301;3011732;-60
2023/06/18 06:40:50;;;;;;;6.90;5.20;;;;;;;24.59;46.90;98866.45;79404;1309;3018877;-61
2023/06/18 06:43:17;;;;;;;8.40;4.90;;;;;;;24.67;46.79;98870.70;79371;1301;3011519;-60
2023/06/18 06:46:00;;;;;;;7.00;5.50;;;;;;;24.75;46.58;98867.88;78146;1301;3069125;-59
2023/06/18 06:48:46;;;;;;;9.40;6.30;;;;;;;24.88;45.74;98868.92;78177;1301;3049882;-61
2023/06/18 06:51:25;;;;;;;7.00;4.80;;;;;;;24.93;45.28;98869.43;78142;1299;3056792;-59
2023/06/18 06:53:58;;;;;;;8.10;5.00;;;;;;;25.03;44.77;98866.25;79393;1294;3011571;-62
2023/06/18 06:56:26;;;;;;;8.90;5.20;;;;;;;25.08;44.23;98866.81;78126;1302;3052875;-60
2023/06/18 06:58:52;;;;;;;7.40;5.50;;;;;;;25.18;44.49;98870.89;79317;1301;3013016;-62
2023/06/18 07:01:20;;;;;;;8.50;4.60;;;;;;;25.31;44.44;98868.43;79444;1301;3012392;-62
2023/06/18 07:03:48;;;;;;;7.50;4.70;;;;;;;25.39;44.04;98870.71;78166;1301;3070461;-61
2023/06/18 07:06:15;;;;;;;13.60;5.10;;;;;;;25.48;43.89;98865.93;79339;1296;3018696;-63
2023/06/18 07:08:42;;;;;;;8.70;5.30;;;;;;;25.52;43.54;98868.50;79314;1296;3011641;-60
2023/06/18 07:11:10;;;;;;;9.80;4.20;;;;;;;25.60;43.21;98867.81;78109;1301;3029186;-61
2023/06/18 07:13:36;;;;;;;5.90;5.00;;;;;;;25.68;42.80;98869.42;79390;1301;3019495;-59
2023/06/18 07:16:03;;;;;;;6.30;5.10;;;;;;;25.72;42.64;98868.19;79289;1309;3013521;-61
2023/06/18 07:18:31;;;;;;;7.10;5.00;;;;;;;25.71;42.93;98873.23;78195;1301;3025918;-61
2023/06/18 07:20:58;;;;;;;5.70;5.10;;;;;;;25.81;42.94;98869.77;79365;1300;3018807;-61
2023/06/18 07:23:24;;;;;;;6.20;5.10;;;;;;;25.88;43.10;98870.27;79240;1301;3012871;-60
2023/06/18 07:25:52;;;;;;;7.80;4.70;;;;;;;25.93;42.72;98874.64;78119;1301;3027781;-62
2023/06/18 07:28:19;;;;;;;13.00;4.70;;;;;;;26.06;42.43;98876.11;79267;1301;3020922;-59
2023/06/18 07:30:46;;;;;;;9.10;5.00;;;;;;;26.16;42.19;98878.35;79233;1301;3013269;-62
2023/06/18 07:33:14;;;;;;;10.10;4.50;;;;;;;26.28;42.07;98881.02;78112;1301;3027905;-61
2023/06/18 07:35:40;;;;;;;7.20;4.40;;;;;;;26.38;41.23;98884.54;79284;1300;3013518;-63
2023/06/18 07:38:07;;;;;;;8.00;4.50;;;;;;;26.41;41.23;98882.83;79205;1301;3011627;-62
2023/06/18 07:40:37;;;;;;;7.70;4.90;;;;;;;26.51;40.89;98881.27;78085;1301;3025135;-62
2023/06/18 07:43:04;;;;;;;8.30;5.00;;;;;;;26.60;40.94;98884.17;79303;1302;3013281;-60
2023/06/18 07:45:33;;;;;;;8.80;4.60;;;;;;;26.72;40.67;98885.12;78776;1295;3011599;-62
2023/06/18 07:48:00;;;;;;;10.40;5.50;;;;;;;26.70;39.74;98882.64;79293;1301;3020505;-61
2023/06/18 07:50:27;;;;;;;6.50;4.80;;;;;;;26.76;39.52;98883.50;79284;1301;3013423;-62
2023/06/18 07:52:55;;;;;;;10.00;5.00;;;;;;;26.87;39.29;98882.46;78001;1300;3027256;-62
2023/06/18 07:55:21;;;;;;;6.50;4.90;;;;;;;26.96;38.78;98882.35;79330;1296;3013446;-60
2023/06/18 07:57:48;;;;;;;6.00;4.90;;;;;;;27.03;38.97;98885.34;79266;1296;3011386;-62
2023/06/18 08:00:16;;;;;;;6.10;4.90;;;;;;;27.12;38.70;98886.12;78047;1301;3026395;-61
2023/06/18 08:02:44;;;;;;;7.00;5.50;;;;;;;27.23;38.34;98887.34;79376;1300;3013948;-60
2023/06/18 08:05:11;;;;;;;7.70;4.70;;;;;;;27.28;37.96;98882.09;79298;1295;3011559;-63
2023/06/18 08:07:39;;;;;;;6.20;4.40;;;;;;;27.40;37.60;98884.66;78109;1301;3055780;-63
2023/06/18 08:10:07;;;;;;;5.80;4.30;;;;;;;27.47;36.93;98879.61;79340;1300;3012935;-60
2023/06/18 08:12:33;;;;;;;7.90;4.70;;;;;;;27.50;37.46;98877.52;79336;1300;3011691;-61
2023/06/18 08:15:01;;;;;;;6.20;4.90;;;;;;;27.53;36.85;98882.85;78018;1300;3052525;-62
2023/06/18 08:17:28;;;;;;;6.30;4.80;;;;;;;27.59;36.49;98877.28;79352;1301;3012936;-62
2023/06/18 08:19:55;;;;;;;8.40;4.30;;;;;;;27.72;36.54;98886.20;79213;1301;3011956;-62
2023/06/18 08:22:23;;;;;;;9.10;4.80;;;;;;;27.80;36.13;98885.46;78092;1301;3029884;-61
2023/06/18 08:24:49;;;;;;;7.30;4.50;;;;;;;27.78;36.44;98886.98;79363;1296;3020722;-62
2023/06/18 08:27:16;;;;;;;9.40;4.30;;;;;;;27.79;36.51;98889.39;79289;1301;3011559;-63
2023/06/18 08:29:44;;;;;;;8.50;5.00;;;;;;;27.86;35.93;98894.90;78016;1301;3028083;-60
2023/06/18 08:32:11;;;;;;;9.30;4.50;;;;;;;27.97;35.85;98893.35;79352;1301;3012862;-62
2023/06/18 08:34:42;;;;;;;7.60;4.40;;;;;;;28.10;35.67;98891.83;79284;1301;3011520;-63
2023/06/18 08:37:10;;;;;;;6.60;5.00;;;;;;;28.24;35.17;98893.14;78072;1301;3056713;-62
2023/06/18 08:39:37;;;;;;;5.50;4.40;;;;;;;28.36;35.11;98892.77;79355;1300;3013331;-63
2023/06/18 08:42:06;;;;;;;11.60;4.80;;;;;;;28.38;33.18;98888.98;79372;1296;3011580;-60
2023/06/18 08:44:34;;;;;;;7.70;4.80;;;;;;;28.34;32.68;98885.52;78097;1301;3052956;-62
2023/06/18 08:47:03;;;;;;;6.70;4.70;;;;;;;28.35;33.05;98886.80;79256;1301;3013665;-61
2023/06/18 08:49:30;;;;;;;6.50;4.70;;;;;;;28.41;32.91;98886.37;79337;1295;3011354;-62
2023/06/18 08:52:07;;;;;;;5.50;4.20;;;;;;;28.52;33.19;98879.27;78156;1301;3057203;-60
2023/06/18 08:54:37;;;;;;;6.30;4.50;;;;;;;28.57;33.18;98880.50;78058;1301;3049097;-62
2023/06/18 08:57:28;;;;;;;9.10;5.00;;;;;;;28.73;32.96;98881.11;79386;1296;3013036;-62
2023/06/18 08:59:59;;;;;;;6.20;4.50;;;;;;;28.80;32.92;98879.98;78093;1301;3052511;-61
2023/06/18 09:02:27;;;;;;;7.40;5.00;;;;;;;28.88;32.66;98879.55;79345;1301;3011861;-61
2023/06/18 09:04:56;;;;;;;8.20;5.00;;;;;;;28.92;32.15;98880.39;78015;1295;3068800;-60
2023/06/18 09:07:24;;;;;;;9.60;4.90;;;;;;;29.04;32.13;98890.55;79370;1295;3013156;-62
2023/06/18 09:09:50;;;;;;;6.60;4.60;;;;;;;29.08;32.28;98890.44;79317;1295;3011518;-63
2023/06/18 09:12:19;;;;;;;7.90;4.10;;;;;;;29.13;31.84;98889.75;78047;1296;3054281;-62
2023/06/18 09:14:46;;;;;;;7.80;4.60;;;;;;;29.16;32.17;98888.72;79294;1301;3012956;-63
2023/06/18 09:17:13;;;;;;;7.80;4.80;;;;;;;29.17;32.36;98888.30;79319;1300;3011588;-64
2023/06/18 09:19:41;;;;;;;5.70;4.80;;;;;;;29.23;31.76;98887.13;78053;1295;3069238;-61
2023/06/18 09:22:12;;;;;;;8.00;4.20;;;;;;;29.29;31.21;98884.48;79383;1296;3014154;-62
2023/06/18 09:24:40;;;;;;;6.70;4.10;;;;;;;29.46;31.21;98883.96;78045;1300;3049754;-62
2023/06/18 09:27:07;;;;;;;6.20;3.90;;;;;;;29.62;31.15;98879.93;79277;1301;3013708;-62
2023/06/18 09:29:35;;;;;;;8.80;4.60;;;;;;;29.72;30.17;98881.60;79379;1296;3013497;-62
2023/06/18 09:32:14;;;;;;;5.80;4.50;;;;;;;29.74;30.91;98883.98;78077;1301;3052956;-63
2023/06/18 09:34:42;;;;;;;7.80;4.90;;;;;;;29.74;31.34;98876.94;78076;1308;3069217;-62
2023/06/18 09:37:12;;;;;;;5.60;3.60;;;;;;;29.81;30.56;98878.63;79242;1295;3012995;-62
2023/06/18 09:39:40;;;;;;;7.80;4.50;;;;;;;29.96;29.96;98881.49;78131;1301;3025843;-63
2023/06/18 09:42:09;;;;;;;5.50;4.40;;;;;;;30.04;29.64;98888.67;79294;1300;3012971;-63
2023/06/18 09:44:36;;;;;;;7.40;4.70;;;;;;;30.12;30.19;98880.36;79275;1296;3013376;-63
2023/06/18 09:47:12;;;;;;;6.80;4.40;;;;;;;30.10;30.37;98882.54;78069;1300;3052765;-63
2023/06/18 09:49:45;;;;;;;4.60;3.80;;;;;;;30.14;30.36;98875.77;78039;1300;3053662;-63
2023/06/18 09:52:14;;;;;;;7.10;4.30;;;;;;;30.29;29.21;98881.33;79254;1295;3011635;-63
2023/06/18 09:54:44;;;;;;;6.30;4.30;;;;;;;30.41;29.11;98880.45;78705;1295;3013409;-62
2023/06/18 09:57:12;;;;;;;5.80;4.20;;;;;;;30.48;29.13;98881.55;79224;1295;3013598;-61
2023/06/18 09:59:39;;;;;;;5.20;4.30;;;;;;;30.58;29.17;98884.54;79240;1295;3011607;-62
2023/06/18 10:02:12;;;;;;;6.80;4.40;;;;;;;30.67;29.45;98886.69;78062;1300;3050374;-63
2023/06/18 10:04:40;;;;;;;7.00;4.50;;;;;;;30.59;29.24;98891.73;79315;1295;3011765;-62
2023/06/18 10:07:16;;;;;;;10.30;4.50;;;;;;;30.67;28.70;98886.95;78083;1301;3052724;-62
2023/06/18 10:09:45;;;;;;;7.60;4.40;;;;;;;30.79;28.53;98885.52;78013;1300;3068962;-63
2023/06/18 10:12:13;;;;;;;7.20;4.20;;;;;;;30.95;28.76;98886.55;79300;1295;3011829;-62
2023/06/18 10:14:42;;;;;;;6.50;5.00;;;;;;;31.09;28.31;98885.16;78824;1297;3011591;-61
2023/06/18 10:17:16;;;;;;;7.20;4.90;;;;;;;31.15;28.07;98882.98;79248;1301;3013046;-61
2023/06/18 10:19:47;;;;;;;6.90;4.90;;;;;;;31.17;27.63;98880.73;78076;1300;3050377;-62
2023/06/18 10:22:14;;;;;;;4.90;4.30;;;;;;;31.06;27.65;98879.14;79186;1301;3012270;-62
2023/06/18 10:25:01;;;;;;;5.60;4.40;;;;;;;31.05;28.35;98883.55;78034;1300;3026505;-62
2023/06/18 10:27:30;;;;;;;5.90;4.50;;;;;;;31.13;28.38;98883.13;77998;1296;3069041;-61
2023/06/18 10:29:59;;;;;;;7.20;4.40;;;;;;;31.02;28.15;98880.77;79329;1295;3013023;-60
2023/06/18 10:32:30;;;;;;;7.20;4.60;;;;;;;31.18;28.08;98883.75;78744;1296;3011486;-61
2023/06/18 10:35:00;;;;;;;7.60;4.60;;;;;;;31.28;28.02;98880.15;79301;1296;3013435;-61
2023/06/18 10:37:30;;;;;;;12.00;4.90;;;;;;;31.32;27.85;98879.15;78001;1300;3025585;-63
2023/06/18 10:39:57;;;;;;;5.90;4.10;;;;;;;31.38;27.43;98876.25;79192;1303;3012145;-62
2023/06/18 10:42:26;;;;;;;8.60;4.60;;;;;;;31.49;27.35;98877.76;78767;1299;3011588;-62
2023/06/18 10:44:59;;;;;;;8.00;4.90;;;;;;;31.66;26.89;98883.55;79267;1300;3013068;-62
2023/06/18 10:47:28;;;;;;;6.10;4.50;;;;;;;31.69;27.30;98883.70;78064;1301;3052856;-62
2023/06/18 10:50:04;;;;;;;8.40;5.20;;;;;;;31.83;26.87;98878.23;79366;1295;3013191;-62
2023/06/18 10:52:37;;;;;;;9.10;5.00;;;;;;;31.89;26.70;98880.34;78073;1300;3053794;-63
2023/06/18 10:55:26;;;;;;;5.80;4.60;;;;;;;32.01;26.45;98881.78;79305;1296;3011491;-63
2023/06/18 10:58:04;;;;;;;6.30;4.50;;;;;;;32.01;26.25;98884.59;78122;1301;3053861;-62
2023/06/18 11:00:31;;;;;;;7.80;5.00;;;;;;;32.11;26.29;98882.41;78117;1300;3052342;-63
2023/06/18 11:03:03;;;;;;;7.30;4.80;;;;;;;32.10;25.95;98884.96;79245;1300;3013796;-62
2023/06/18 11:05:34;;;;;;;6.30;4.50;;;;;;;32.20;25.69;98886.65;78171;1295;3055615;-62
2023/06/18 11:08:01;;;;;;;7.90;4.80;;;;;;;32.16;26.05;98881.59;79263;1300;3012968;-62
2023/06/18 11:10:33;;;;;;;7.30;5.40;;;;;;;32.14;25.73;98884.48;78091;1295;3052868;-61
2023/06/18 11:13:04;;;;;;;5.70;4.10;;;;;;;32.36;25.36;98881.66;79145;1295;3011639;-62
2023/06/18 11:15:33;;;;;;;7.60;4.00;;;;;;;32.58;24.71;98884.07;78036;1301;3052634;-63
2023/06/18 11:18:03;;;;;;;6.10;4.50;;;;;;;32.57;24.78;98885.81;79352;1301;3013143;-63
2023/06/18 11:20:33;;;;;;;5.40;4.70;;;;;;;32.52;25.40;98886.79;78059;1301;3052221;-63
2023/06/18 11:23:01;;;;;;;7.30;4.30;;;;;;;32.61;24.69;98886.67;79377;1296;3013019;-60